Decoded Metar for ETAD (SPANGDAHLEM in GERMANY) (IATA:SPM) | Meteo·Mobile Aviation Weather
aviador You're here:

ETAD Decoded Metar

SPANGDAHLEM in GERMANY
Report Time2018-09-20 12:56:00
UTC Time2018-09-20 14:38:48
Flight Rules Old
Wind230° at 11 Gusting to 17 kt
W.Decomp.*RWY 23: 11.0 kt HW 0.2 kt LCW
W.Rank230° ranks 1
Current wind is above 230° avg. (8.4)
Visibility9999 m
Phenomena:N/A
Clouds:N/A
Expected CloudBase > 6,000 ft AGL from Temp-Dew spread
CeilingNone
Temp25°C (ISA +12)
Dew Point10°C (39% RH)
AAT21.1°C
QNH1018 hPa
Density Alt2,628 ft
Elevation1,198 ft
Report Wrong Elevation
Raw Report
METAR ETAD 201256Z AUTO 23011G17KT 9999 CLR 25/10 A3007 RMK AO2 SLP161
T02490100 $=

Extra information for ETAD:More info

Metar Taf Metar & Taf Last 4 Metars F.Rules Stats Wind Profile Meteogram Temp Stats Airport Information Weather charts Add Link Nearby VenuesMetar ALERT Operation Metar Decoded Social comments